Climatologie pour Saint-Brevin les Pins
Jour • Résumé pour février 11, 2017 Système :  Métrique    Anglais   Mixte
« - 1 jour
+ 1 jour »
Jour Semaine Mois Année Personnalisé
  Maximum : Minimum : Moyenne :
Température sous abri : -17.8 °C -18.9 °C -17.2 °C
Point de rosée : -17.8 °C -19.3 °C -17.9 °C
Humidité : Humidity % 76 % 91 %
Vitesse du vent : 0 km/h 0 km/h 3.9 km/h
Rafale : 0 km/h - -
Direction :- - East
Pression : 0 hPa 34442.4 hPa -
Précipitations : 0 mm    
Historical Graphs
 
 
Tableau de données pour février 11, 2017
Heure Tempé Pt rosée Pression Vent Vitesse Rafale Humidité Taux pluie (/hr) Soleil
-17.8 °C -17.8 °C 0 hPa Calm     Humidity % 0 mm SolarRadiationWatts/m^2 W/m2 Conditions
00:05 -18.1 °C -18.6 °C 34567.7 hPa NE 2.6 km/h 5.1 km/h 93 % 0 mm 0 W/m2
00:10 -17.9 °C -18.4 °C 34567.7 hPa Calm   5.1 km/h 94 % 0 mm 0 W/m2
00:15 -18.1 °C -18.6 °C 34567.7 hPa Calm   2.6 km/h 93 % 0 mm 0 W/m2
00:20 -18.4 °C -18.9 °C 34567.7 hPa Calm   2.6 km/h 93 % 0 mm 0 W/m2
00:30 -18.6 °C -19 °C 34567.7 hPa Calm   5.1 km/h 94 % 0 mm 0 W/m2
00:40 -18.7 °C -19.2 °C 34577.8 hPa NE 2.6 km/h 5.1 km/h 94 % 0 mm 0 W/m2
00:45 -18.7 °C -19.1 °C 34577.8 hPa Calm   5.1 km/h 95 % 0 mm 0 W/m2
00:50 -18.5 °C -18.9 °C 34577.8 hPa Calm   5.1 km/h 95 % 0 mm 0 W/m2
01:00 -18.5 °C -18.9 °C 34577.8 hPa Calm   5.1 km/h 95 % 0 mm 0 W/m2
01:10 -18.5 °C -18.9 °C 34577.8 hPa Calm   7.7 km/h 95 % 0 mm 0 W/m2
01:20 -18.7 °C -19.1 °C 34577.8 hPa North 7.7 km/h 10.3 km/h 95 % 0 mm 0 W/m2
01:25 -18.6 °C -18.9 °C 34577.8 hPa Calm   12.9 km/h 95 % 0 mm 0 W/m2
01:30 -18.4 °C -18.7 °C 34577.8 hPa Calm   12.9 km/h 96 % 0 mm 0 W/m2
01:35 -18.4 °C -18.8 °C 34577.8 hPa Calm   7.7 km/h 95 % 0 mm 0 W/m2
01:40 -18.5 °C -18.9 °C 34577.8 hPa Calm   5.1 km/h 95 % 0 mm 0 W/m2
01:45 -18.5 °C -18.9 °C 34567.7 hPa Calm   5.1 km/h 95 % 0 mm 0 W/m2
01:50 -18.5 °C -18.9 °C 34567.7 hPa North 2.6 km/h 5.1 km/h 95 % 0 mm 0 W/m2
01:55 -18.7 °C -19.1 °C 34577.8 hPa Calm   5.1 km/h 95 % 0 mm 0 W/m2
02:00 -18.7 °C -19.1 °C 34577.8 hPa North 2.6 km/h 7.7 km/h 95 % 0 mm 0 W/m2
02:10 -18.5 °C -18.8 °C 34567.7 hPa NNE 7.7 km/h 10.3 km/h 96 % 0 mm 0 W/m2
02:15 -18.3 °C -18.7 °C 34567.7 hPa NNE 2.6 km/h 7.7 km/h 96 % 0 mm 0 W/m2
02:25 -18.4 °C -18.8 °C 34577.8 hPa Calm   7.7 km/h 95 % 0 mm 0 W/m2
02:30 -18.7 °C -19.1 °C 34577.8 hPa Calm   10.3 km/h 95 % 0 mm 0 W/m2
02:40 -18.6 °C -18.8 °C 34577.8 hPa Calm   7.7 km/h 96 % 0 mm 0 W/m2
02:45 -18.5 °C -18.8 °C 34577.8 hPa NNE 2.6 km/h 7.7 km/h 96 % 0 mm 0 W/m2
02:55 -18.4 °C -18.8 °C 34567.7 hPa Calm   7.7 km/h 96 % 0 mm 0 W/m2
03:05 -18.6 °C -18.9 °C 34577.8 hPa Calm     95 % 0 mm 0 W/m2
03:10 -18.8 °C -19.2 °C 34577.8 hPa Calm     95 % 0 mm 0 W/m2
03:20 -18.9 °C -19.3 °C 34577.8 hPa NNE 2.6 km/h 10.3 km/h 95 % 0 mm 0 W/m2
03:25 -18.8 °C -19.1 °C 34577.8 hPa North 5.1 km/h 12.9 km/h 96 % 0 mm 0 W/m2
03:30 -18.7 °C -18.9 °C 34577.8 hPa NNE 5.1 km/h 15.6 km/h 96 % 0 mm 0 W/m2
03:40 -18.6 °C -18.9 °C 34577.8 hPa North 5.1 km/h 12.9 km/h 96 % 0 mm 0 W/m2
03:45 -18.6 °C -18.9 °C 34567.7 hPa North 5.1 km/h 7.7 km/h 96 % 0 mm 0 W/m2
03:55 -18.6 °C -18.9 °C 34567.7 hPa Calm   7.7 km/h 96 % 0 mm 0 W/m2
04:00 -18.6 °C -18.9 °C 34567.7 hPa Calm   2.6 km/h 96 % 0 mm 0 W/m2
04:05 -18.8 °C -19.1 °C 34567.7 hPa NNE 5.1 km/h 7.7 km/h 96 % 0 mm 0 W/m2
04:20 -18.7 °C -19 °C 34567.7 hPa NE 2.6 km/h 10.3 km/h 96 % 0 mm 0 W/m2
04:25 -18.6 °C -18.9 °C 34567.7 hPa Calm   12.9 km/h 96 % 0 mm 0 W/m2
04:35 -18.5 °C -18.7 °C 34567.7 hPa Calm   10.3 km/h 97 % 0 mm 0 W/m2
04:40 -18.6 °C -18.9 °C 34567.7 hPa Calm   7.7 km/h 96 % 0 mm 0 W/m2
04:45 -18.6 °C -18.9 °C 34567.7 hPa Calm   5.1 km/h 96 % 0 mm 0 W/m2
04:55 -18.6 °C -18.9 °C 34567.7 hPa Calm   5.1 km/h 96 % 0 mm 0 W/m2
05:00 -18.6 °C -18.9 °C 34567.7 hPa Calm   5.1 km/h 96 % 0 mm 0 W/m2
05:10 -18.8 °C -19.1 °C 34567.7 hPa NNE 5.1 km/h 7.7 km/h 96 % 0 mm 0 W/m2
05:15 -18.8 °C -19.2 °C 34567.7 hPa NNE 5.1 km/h 7.7 km/h 96 % 0 mm 0 W/m2
05:25 -18.6 °C -18.8 °C 34567.7 hPa NNE 7.7 km/h 12.9 km/h 97 % 0 mm 0 W/m2
05:30 -18.6 °C -18.8 °C 34567.7 hPa NNE 2.6 km/h 12.9 km/h 97 % 0 mm 0 W/m2
05:40 -18.6 °C -18.8 °C 34567.7 hPa NNE 7.7 km/h 7.7 km/h 97 % 0 mm 0 W/m2
05:45 -18.7 °C -18.9 °C 34567.7 hPa Calm   7.7 km/h 97 % 0 mm 0 W/m2
05:55 -18.7 °C -18.9 °C 34567.7 hPa NNE 5.1 km/h 10.3 km/h 97 % 0 mm 0 W/m2
06:05 -18.6 °C -18.8 °C 34567.7 hPa NNE 7.7 km/h 12.9 km/h 97 % 0 mm 0 W/m2
06:10 -18.6 °C -18.8 °C 34567.7 hPa North 7.7 km/h 15.6 km/h 97 % 0 mm 0 W/m2
06:20 -18.4 °C -18.7 °C 34577.8 hPa NE 5.1 km/h 15.6 km/h 97 % 0 mm 0 W/m2
06:25 -18.3 °C -18.6 °C 34577.8 hPa NNE 5.1 km/h 15.6 km/h 97 % 0 mm 0 W/m2
06:30 -18.3 °C -18.6 °C 34567.7 hPa NE 12.9 km/h 12.9 km/h 97 % 0 mm 0 W/m2
06:35 -18.4 °C -18.6 °C 34577.8 hPa NNE 12.9 km/h 15.6 km/h 97 % 0 mm 0 W/m2
06:40 -18.3 °C -18.6 °C 34577.8 hPa NE 7.7 km/h 15.6 km/h 97 % 0 mm 0 W/m2
06:45 -18.3 °C -18.6 °C 34577.8 hPa Calm   15.6 km/h 97 % 0 mm 0 W/m2
06:55 -18.2 °C -18.4 °C 34577.8 hPa NE 7.7 km/h 12.9 km/h 97 % 0 mm 0 W/m2
07:00 -18.3 °C -18.6 °C 34577.8 hPa Calm   12.9 km/h 97 % 0 mm 0 W/m2
07:05 -18.4 °C -18.7 °C 34577.8 hPa NE 2.6 km/h 10.3 km/h 97 % 0 mm 0 W/m2
07:10 -18.4 °C -18.7 °C 34577.8 hPa NE 2.6 km/h 10.3 km/h 97 % 0 mm 0 W/m2
07:15 -18.4 °C -18.6 °C 34577.8 hPa Calm   10.3 km/h 97 % 0 mm 0 W/m2
07:20 -18.4 °C -18.7 °C 34577.8 hPa NE 5.1 km/h 15.6 km/h 97 % 0 mm 0 W/m2
07:25 -18.4 °C -18.6 °C 34577.8 hPa ENE 5.1 km/h 15.6 km/h 97 % 0 mm 0 W/m2
07:30 -18.4 °C -18.6 °C 34577.8 hPa Calm   12.9 km/h 97 % 0 mm 0 W/m2
07:40 -18.6 °C -18.8 °C 34577.8 hPa Calm   7.7 km/h 97 % 0 mm 0 W/m2
07:50 -18.6 °C -18.8 °C 34577.8 hPa East 5.1 km/h 10.3 km/h 97 % 0 mm 0 W/m2
07:55 -18.5 °C -18.7 °C 34577.8 hPa NE 5.1 km/h 10.3 km/h 97 % 0 mm 0 W/m2
08:00 -18.6 °C -18.8 °C 34591.4 hPa Calm   10.3 km/h 97 % 0 mm 0 W/m2
08:10 -18.6 °C -18.8 °C 34591.4 hPa NE 5.1 km/h 10.3 km/h 97 % 0 mm 0 W/m2
08:15 -18.5 °C -18.7 °C 34591.4 hPa Calm   10.3 km/h 97 % 0 mm 0 W/m2
08:25 -18.6 °C -18.8 °C 34591.4 hPa NE 7.7 km/h 12.9 km/h 97 % 0 mm 5 W/m2
08:30 -18.6 °C -18.8 °C 34591.4 hPa North 2.6 km/h 12.9 km/h 97 % 0 mm 7 W/m2
08:40 -18.3 °C -18.6 °C 34591.4 hPa Calm   15.6 km/h 97 % 0 mm 11 W/m2
08:45 -18.3 °C -18.6 °C 34601.5 hPa NE 7.7 km/h 10.3 km/h 97 % 0 mm 16 W/m2
08:50 -18.3 °C -18.6 °C 34591.4 hPa Calm   10.3 km/h 97 % 0 mm 18 W/m2
08:55 -18.3 °C -18.6 °C 34591.4 hPa ENE 2.6 km/h 7.7 km/h 97 % 0 mm 19 W/m2
09:00 -18.3 °C -18.5 °C 34591.4 hPa Calm   7.7 km/h 97 % 0 mm 18 W/m2
09:10 -18.4 °C -18.6 °C 34601.5 hPa Calm   7.7 km/h 97 % 0 mm 21 W/m2
09:15 -18.4 °C -18.6 °C 34601.5 hPa ENE 5.1 km/h 7.7 km/h 97 % 0 mm 28 W/m2
09:25 -18.2 °C -18.4 °C 34601.5 hPa ENE 2.6 km/h 7.7 km/h 97 % 0 mm 42 W/m2
09:30 -18.2 °C -18.4 °C 34601.5 hPa ENE 2.6 km/h 7.7 km/h 97 % 0 mm 42 W/m2
09:40 -18.1 °C -18.3 °C 34601.5 hPa Calm   10.3 km/h 97 % 0 mm 54 W/m2
09:45 -17.9 °C -18.1 °C 34601.5 hPa Calm   10.3 km/h 97 % 0 mm 58 W/m2
09:55 -17.7 °C -18 °C 34601.5 hPa Calm   5.1 km/h 97 % 0 mm 81 W/m2
10:00 -17.7 °C -17.9 °C 34601.5 hPa NE 2.6 km/h 5.1 km/h 97 % 0 mm 93 W/m2
10:10 -17.6 °C -17.8 °C 34591.4 hPa Calm   2.6 km/h 97 % 0 mm 105 W/m2
10:15 -17.5 °C -17.7 °C 34591.4 hPa Calm   5.1 km/h 97 % 0 mm 113 W/m2
10:25 -17.3 °C -17.4 °C 34591.4 hPa Calm   7.7 km/h 98 % 0 mm 137 W/m2
10:30 -17.2 °C -17.4 °C 34591.4 hPa Calm   5.1 km/h 97 % 0 mm 137 W/m2
10:40 -17 °C -17.2 °C 34591.4 hPa NE 2.6 km/h 10.3 km/h 97 % 0 mm 169 W/m2
10:45 -16.9 °C -17.1 °C 34591.4 hPa NE 2.6 km/h 7.7 km/h 98 % 0 mm 185 W/m2
10:50 -16.8 °C -17.1 °C 34591.4 hPa NE 5.1 km/h 7.7 km/h 97 % 0 mm 135 W/m2
11:05 -16.7 °C -16.9 °C 34591.4 hPa Calm     97 % 0 mm 123 W/m2
11:10 -16.6 °C -16.8 °C 34591.4 hPa Calm     97 % 0 mm 128 W/m2
11:15 -16.6 °C -16.9 °C 34591.4 hPa Calm     96 % 0 mm 148 W/m2
11:25 -16.3 °C -16.6 °C 34591.4 hPa NE 2.6 km/h 7.7 km/h 96 % 0 mm 195 W/m2
11:30 -16.1 °C -16.4 °C 34591.4 hPa NE 2.6 km/h 15.6 km/h 96 % 0 mm 190 W/m2
11:40 -16.2 °C -16.6 °C 34591.4 hPa ENE 5.1 km/h 15.6 km/h 95 % 0 mm 197 W/m2
11:45 -16.2 °C -16.6 °C 34591.4 hPa NE 10.3 km/h 15.6 km/h 95 % 0 mm 192 W/m2
11:55 -16 °C -16.5 °C 34591.4 hPa Calm   15.6 km/h 94 % 0 mm 186 W/m2
12:00 -16 °C -16.7 °C 34591.4 hPa NE 5.1 km/h 12.9 km/h 92 % 0 mm 197 W/m2
12:10 -15.9 °C -16.7 °C 34591.4 hPa NE 2.6 km/h 10.3 km/h 91 % 0 mm 183 W/m2
12:15 -15.9 °C -16.8 °C 34591.4 hPa Calm   15.6 km/h 90 % 0 mm 169 W/m2
12:20 -15.8 °C -16.7 °C 34591.4 hPa NNE 7.7 km/h 15.6 km/h 90 % 0 mm 172 W/m2
12:25 -15.7 °C -16.4 °C 34591.4 hPa WNW 2.6 km/h 12.9 km/h 91 % 0 mm 162 W/m2
12:30 -15.7 °C -16.4 °C 34591.4 hPa North 10.3 km/h 15.6 km/h 91 % 0 mm 151 W/m2
12:40 -15.8 °C -16.7 °C 34577.8 hPa North 5.1 km/h 15.6 km/h 90 % 0 mm 155 W/m2
12:45 -15.8 °C -16.6 °C 34577.8 hPa North 5.1 km/h 15.6 km/h 90 % 0 mm 151 W/m2
13:00 -15.6 °C -16.5 °C 34577.8 hPa Calm   18.2 km/h 89 % 0 mm 163 W/m2
13:10 -15.4 °C -16.4 °C 34577.8 hPa NNW 5.1 km/h 15.6 km/h 88 % 0 mm 146 W/m2
13:15 -15.5 °C -16.7 °C 34577.8 hPa Calm   20.8 km/h 86 % 0 mm 148 W/m2
13:20 -15.4 °C -16.6 °C 34567.7 hPa NNW 15.6 km/h 20.8 km/h 87 % 0 mm 156 W/m2
13:25 -15.4 °C -16.4 °C 34567.7 hPa NNE 7.7 km/h 15.6 km/h 87 % 0 mm 160 W/m2
13:30 -15.4 °C -16.7 °C 34567.7 hPa North 12.9 km/h 20.8 km/h 85 % 0 mm 155 W/m2
13:40 -15.4 °C -16.7 °C 34567.7 hPa NNE 10.3 km/h 18.2 km/h 85 % 0 mm 199 W/m2
13:50 -15.4 °C -16.9 °C 34554.1 hPa NNE 10.3 km/h 20.8 km/h 82 % 0 mm 204 W/m2
14:05 -15.2 °C -16.6 °C 34544 hPa NE 5.1 km/h 15.6 km/h 83 % 0 mm 211 W/m2
14:15 -15.2 °C -16.9 °C 34544 hPa NNW 12.9 km/h 12.9 km/h 80 % 0 mm 218 W/m2
14:25 -15 °C -16.8 °C 34533.8 hPa NE 5.1 km/h 23.3 km/h 80 % 0 mm 225 W/m2
14:30 -15.1 °C -16.9 °C 34533.8 hPa North 18.2 km/h 23.3 km/h 79 % 0 mm 216 W/m2
14:35 -14.9 °C -16.6 °C 34533.8 hPa NW 5.1 km/h 20.8 km/h 81 % 0 mm 218 W/m2
14:40 -14.9 °C -17.1 °C 34533.8 hPa NNW 10.3 km/h 20.8 km/h 76 % 0 mm 229 W/m2
14:45 -14.8 °C -16.6 °C 34520.3 hPa North 10.3 km/h 20.8 km/h 80 % 0 mm 227 W/m2
14:55 -14.8 °C -16.8 °C 34520.3 hPa NNE 2.6 km/h 20.8 km/h 78 % 0 mm 230 W/m2
15:00 -14.9 °C -16.9 °C 34520.3 hPa NE 10.3 km/h 18.2 km/h 78 % 0 mm 234 W/m2
15:10 -14.9 °C -16.7 °C 34510.1 hPa NNW 5.1 km/h 18.2 km/h 79 % 0 mm 214 W/m2
15:15 -14.9 °C -16.7 °C 34510.1 hPa NW 7.7 km/h 15.6 km/h 79 % 0 mm 207 W/m2
15:20 -14.9 °C -16.6 °C 34510.1 hPa NNW 12.9 km/h 18.2 km/h 80 % 0 mm 199 W/m2
15:35 -14.8 °C -16.5 °C 34496.6 hPa NW 7.7 km/h 20.8 km/h 80 % 0 mm 204 W/m2
15:40 -14.7 °C -16.7 °C 34496.6 hPa NNE 5.1 km/h 20.8 km/h 78 % 0 mm 190 W/m2
15:45 -14.8 °C -16.6 °C 34496.6 hPa NW 10.3 km/h 18.2 km/h 79 % 0 mm 162 W/m2
15:55 -14.9 °C -16.6 °C 34496.6 hPa NNW 5.1 km/h 18.2 km/h 80 % 0 mm 144 W/m2
16:00 -14.8 °C -16.6 °C 34496.6 hPa NW 12.9 km/h 15.6 km/h 80 % 0 mm 134 W/m2
16:10 -15 °C -16.8 °C 34496.6 hPa North 7.7 km/h 20.8 km/h 79 % 0 mm 141 W/m2
16:15 -15 °C -16.8 °C 34486.4 hPa NNE 10.3 km/h 20.8 km/h 79 % 0 mm 141 W/m2
16:20 -15.1 °C -16.9 °C 34486.4 hPa NW 7.7 km/h 23.3 km/h 79 % 0 mm 135 W/m2
16:25 -15 °C -16.9 °C 34486.4 hPa NNE 18.2 km/h 23.3 km/h 78 % 0 mm 134 W/m2
16:30 -15.1 °C -16.9 °C 34486.4 hPa Calm   20.8 km/h 79 % 0 mm 141 W/m2
16:40 -15.2 °C -17 °C 34476.3 hPa NNE 5.1 km/h 23.3 km/h 79 % 0 mm 114 W/m2
16:50 -15.1 °C -16.9 °C 34476.3 hPa NNW 12.9 km/h 23.3 km/h 80 % 0 mm 81 W/m2
16:55 -15.1 °C -16.8 °C 34476.3 hPa NW 5.1 km/h 23.3 km/h 80 % 0 mm 148 W/m2
17:00 -15.1 °C -16.8 °C 34476.3 hPa North 5.1 km/h 18.2 km/h 80 % 0 mm 83 W/m2
17:15 -15.3 °C -17.1 °C 34476.3 hPa Calm   18.2 km/h 80 % 0 mm 69 W/m2
17:20 -15.3 °C -17.1 °C 34476.3 hPa NNW 5.1 km/h 18.2 km/h 80 % 0 mm 63 W/m2
17:25 -15.3 °C -17.1 °C 34476.3 hPa NE 10.3 km/h 15.6 km/h 80 % 0 mm 63 W/m2
17:30 -15.3 °C -16.9 °C 34476.3 hPa NNW 5.1 km/h 15.6 km/h 81 % 0 mm 63 W/m2
17:35 -15.3 °C -17 °C 34476.3 hPa NE 5.1 km/h 18.2 km/h 81 % 0 mm 67 W/m2
17:40 -15.3 °C -16.9 °C 34476.3 hPa North 5.1 km/h 18.2 km/h 81 % 0 mm 88 W/m2
17:45 -15.3 °C -17.1 °C 34476.3 hPa North 7.7 km/h 18.2 km/h 80 % 0 mm 51 W/m2
17:55 -15.6 °C -17.2 °C 34462.7 hPa North 2.6 km/h 23.3 km/h 81 % 0 mm 21 W/m2
18:00 -15.7 °C -17.3 °C 34476.3 hPa NNE 10.3 km/h 20.8 km/h 82 % 0 mm 19 W/m2
18:10 -16 °C -17.3 °C 34476.3 hPa NNW 5.1 km/h 18.2 km/h 84 % 0 mm 9 W/m2
18:20 -16.2 °C -17.5 °C 34476.3 hPa Calm   12.9 km/h 85 % 0 mm 5 W/m2
18:25 -16.3 °C -17.6 °C 34476.3 hPa NNE 5.1 km/h 12.9 km/h 86 % 0 mm 0 W/m2
18:30 -16.4 °C -17.6 °C 34476.3 hPa NE 12.9 km/h 12.9 km/h 86 % 0 mm 0 W/m2
18:40 -16.5 °C -17.7 °C 34476.3 hPa Calm   12.9 km/h 86 % 0 mm 0 W/m2
18:45 -16.7 °C -17.8 °C 34476.3 hPa NE 2.6 km/h 5.1 km/h 86 % 0 mm 0 W/m2
18:55 -17.1 °C -18 °C 34476.3 hPa North 5.1 km/h 7.7 km/h 88 % 0 mm 0 W/m2
19:00 -17.1 °C -18 °C 34476.3 hPa Calm   7.7 km/h 89 % 0 mm 0 W/m2
19:10 -17.2 °C -18.1 °C 34476.3 hPa Calm   5.1 km/h 90 % 0 mm 0 W/m2
19:15 -17.1 °C -17.8 °C 34476.3 hPa Calm   5.1 km/h 91 % 0 mm 0 W/m2
19:20 -17 °C -17.7 °C 34476.3 hPa North 2.6 km/h 5.1 km/h 91 % 0 mm 0 W/m2
19:25 -16.9 °C -17.7 °C 34476.3 hPa Calm   2.6 km/h 91 % 0 mm 0 W/m2
19:30 -16.9 °C -17.7 °C 34476.3 hPa Calm   2.6 km/h 91 % 0 mm 0 W/m2
19:40 -16.8 °C -17.6 °C 34476.3 hPa Calm     91 % 0 mm 0 W/m2
19:50 -16.9 °C -17.7 °C 34476.3 hPa Calm   2.6 km/h 90 % 0 mm 0 W/m2
19:55 -17.1 °C -17.9 °C 34476.3 hPa North 5.1 km/h 5.1 km/h 90 % 0 mm 0 W/m2
20:00 -17.2 °C -17.9 °C 34476.3 hPa North 2.6 km/h 7.7 km/h 91 % 0 mm 0 W/m2
20:10 -17.3 °C -18 °C 34476.3 hPa North 2.6 km/h 7.7 km/h 92 % 0 mm 0 W/m2
20:15 -17.2 °C -17.9 °C 34462.7 hPa North 5.1 km/h 7.7 km/h 92 % 0 mm 0 W/m2
20:25 -17.2 °C -17.8 °C 34476.3 hPa Calm   5.1 km/h 92 % 0 mm 0 W/m2
20:35 -17.2 °C -17.8 °C 34462.7 hPa North 2.6 km/h 7.7 km/h 92 % 0 mm 0 W/m2
20:40 -17.2 °C -17.9 °C 34476.3 hPa North 5.1 km/h 7.7 km/h 92 % 0 mm 0 W/m2
20:50 -17.2 °C -17.8 °C 34462.7 hPa North 5.1 km/h 10.3 km/h 93 % 0 mm 0 W/m2
20:55 -17.2 °C -17.7 °C 34462.7 hPa NNE 5.1 km/h 10.3 km/h 93 % 0 mm 0 W/m2
21:00 -17.2 °C -17.8 °C 34462.7 hPa NNE 2.6 km/h 10.3 km/h 92 % 0 mm 0 W/m2
21:10 -17.2 °C -17.8 °C 34462.7 hPa NNE 5.1 km/h 7.7 km/h 92 % 0 mm 0 W/m2
21:20 -17.3 °C -17.9 °C 34462.7 hPa NNE 5.1 km/h 7.7 km/h 93 % 0 mm 0 W/m2
21:25 -17.3 °C -17.8 °C 34462.7 hPa NNE 5.1 km/h 10.3 km/h 93 % 0 mm 0 W/m2
21:35 -17.3 °C -17.8 °C 34462.7 hPa NE 2.6 km/h 12.9 km/h 93 % 0 mm 0 W/m2
21:40 -17.1 °C -17.7 °C 34462.7 hPa NE 5.1 km/h 10.3 km/h 93 % 0 mm 0 W/m2
21:45 -17.1 °C -17.6 °C 34462.7 hPa North 12.9 km/h 12.9 km/h 93 % 0 mm 0 W/m2
21:55 -16.9 °C -17.5 °C 34462.7 hPa NE 2.6 km/h 12.9 km/h 93 % 0 mm 0 W/m2
22:00 -16.9 °C -17.4 °C 34462.7 hPa ENE 5.1 km/h 12.9 km/h 93 % 0 mm 0 W/m2
22:10 -16.7 °C -17.3 °C 34452.6 hPa Calm   12.9 km/h 92 % 0 mm 0 W/m2
22:15 -16.7 °C -17.3 °C 34452.6 hPa Calm   12.9 km/h 92 % 0 mm 0 W/m2
22:20 -16.6 °C -17.3 °C 34452.6 hPa Calm   7.7 km/h 92 % 0 mm 0 W/m2
22:25 -16.6 °C -17.4 °C 34452.6 hPa NE 5.1 km/h 7.7 km/h 91 % 0 mm 0 W/m2
22:30 -16.7 °C -17.4 °C 34452.6 hPa NE 2.6 km/h 10.3 km/h 91 % 0 mm 0 W/m2
22:40 -16.7 °C -17.3 °C 34452.6 hPa ENE 2.6 km/h 10.3 km/h 92 % 0 mm 0 W/m2
22:45 -16.7 °C -17.4 °C 34452.6 hPa Calm   10.3 km/h 91 % 0 mm 0 W/m2
22:50 -16.8 °C -17.5 °C 34452.6 hPa Calm   10.3 km/h 91 % 0 mm 0 W/m2
22:55 -16.8 °C -17.4 °C 34452.6 hPa Calm   7.7 km/h 92 % 0 mm 0 W/m2
23:00 -16.8 °C -17.4 °C 34452.6 hPa ENE 7.7 km/h 7.7 km/h 92 % 0 mm 0 W/m2
23:10 -17 °C -17.7 °C 34442.4 hPa NE 2.6 km/h 12.9 km/h 92 % 0 mm 0 W/m2
23:15 -17.1 °C -17.7 °C 34442.4 hPa Calm   15.6 km/h 92 % 0 mm 0 W/m2
23:20 -17.1 °C -17.7 °C 34442.4 hPa NE 5.1 km/h 15.6 km/h 92 % 0 mm 0 W/m2
23:30 -17.1 °C -17.7 °C 34452.6 hPa Calm   10.3 km/h 93 % 0 mm 0 W/m2
23:40 -17.1 °C -17.7 °C 34442.4 hPa ENE 2.6 km/h 5.1 km/h 92 % 0 mm 0 W/m2
23:45 -17.1 °C -17.8 °C 34442.4 hPa Calm   7.7 km/h 92 % 0 mm 0 W/m2
23:55 -17.3 °C -17.9 °C 34442.4 hPa NE 5.1 km/h 10.3 km/h 92 % 0 mm 0 W/m2
Avec l'autorisation de Weather Underground - 1.5 mb